Terminal Aerodrome Forecast
Issued by NWS

Home | Current Version | Previous Version | Graphics & Text | Print | Product List | Glossary On
Versions: 1 2 3 4 5 6 7 8 9 10 11 12 13 14 15 16 17 18 19 20
150
FTUS43 KGRB 251139
TAFAUW
TAF
KAUW 251139Z 2512/2612 06010KT P6SM OVC012
     FM251400 08012G19KT P6SM OVC010
     FM251900 08011G18KT 6SM -RA BR OVC013
     FM260400 08009KT 4SM -RA BR OVC007
     FM260800 08007KT 4SM -RA BR OVC004=

USA.gov is the U.S. government's official web portal to all federal, state and local government web resources and services.